createdAt,value
2018-04-13T00:02:11.244Z,70.37
2018-04-13T00:04:38.747Z,70.42
2018-04-13T00:07:06.234Z,70.42
2018-04-13T00:09:33.695Z,70.31
2018-04-13T00:12:01.161Z,70.29
2018-04-13T00:14:28.623Z,70.25
2018-04-13T00:16:56.157Z,70.14
2018-04-13T00:19:23.640Z,70.09
2018-04-13T00:21:51.215Z,70.13
2018-04-13T00:24:18.667Z,70.15
2018-04-13T00:26:46.111Z,70.15
2018-04-13T00:29:13.608Z,70.14
2018-04-13T00:31:41.080Z,70.12
2018-04-13T00:34:08.680Z,70.24
2018-04-13T00:36:36.216Z,70.32
2018-04-13T00:39:03.702Z,70.34
2018-04-13T00:41:31.150Z,70.48
2018-04-13T00:43:58.651Z,70.46
2018-04-13T00:46:26.137Z,70.62
2018-04-13T00:48:53.622Z,70.86
2018-04-13T00:51:21.094Z,70.93
2018-04-13T00:53:48.625Z,70.99
2018-04-13T00:56:16.133Z,71.17
2018-04-13T00:58:43.652Z,71.17
2018-04-13T01:01:11.145Z,71.20
2018-04-13T01:03:38.667Z,71.19
2018-04-13T01:06:06.191Z,71.19
2018-04-13T01:08:33.802Z,71.15
2018-04-13T01:11:01.260Z,71.13
2018-04-13T01:13:28.767Z,71.10
2018-04-13T01:15:56.277Z,71.06
2018-04-13T01:18:23.787Z,71.10
2018-04-13T01:20:51.382Z,71.20
2018-04-13T01:23:18.885Z,71.26
2018-04-13T01:25:46.344Z,71.24
2018-04-13T01:28:13.868Z,71.19
2018-04-13T01:30:41.361Z,71.20
2018-04-13T01:33:08.848Z,71.24
2018-04-13T01:35:36.321Z,71.25
2018-04-13T01:38:03.803Z,71.12
2018-04-13T01:40:31.269Z,71.05
2018-04-13T01:42:58.800Z,70.95
2018-04-13T01:45:26.361Z,70.91
2018-04-13T01:47:53.835Z,70.80
2018-04-13T01:50:21.303Z,70.79
2018-04-13T01:52:49.055Z,70.67
2018-04-13T01:55:16.546Z,70.74
2018-04-13T01:57:44.045Z,70.65
2018-04-13T02:00:11.600Z,70.62
2018-04-13T02:02:39.060Z,70.69
2018-04-13T02:05:06.631Z,70.84
2018-04-13T02:07:34.087Z,70.88
2018-04-13T02:10:01.589Z,70.97
2018-04-13T02:12:29.075Z,71.12
2018-04-13T02:14:56.595Z,71.22
2018-04-13T02:17:24.088Z,71.42
2018-04-13T02:19:51.546Z,71.59
2018-04-13T02:22:19.056Z,71.66
2018-04-13T02:24:46.539Z,71.77
2018-04-13T02:27:14.043Z,71.79
2018-04-13T02:29:41.630Z,71.88
2018-04-13T02:32:09.288Z,71.96
2018-04-13T02:34:36.855Z,72.04
2018-04-13T02:37:04.251Z,72.09
2018-04-13T02:39:31.853Z,72.10
2018-04-13T02:41:59.411Z,72.09
2018-04-13T02:44:26.863Z,72.14
2018-04-13T02:46:54.432Z,71.99
2018-04-13T02:49:21.957Z,72.01
2018-04-13T02:51:49.419Z,71.98
2018-04-13T02:54:16.872Z,71.97
2018-04-13T02:56:44.382Z,71.89
2018-04-13T02:59:11.859Z,71.91
2018-04-13T03:01:39.356Z,71.93
2018-04-13T03:04:07.742Z,72.05
2018-04-13T03:06:35.212Z,71.96
2018-04-13T03:09:02.733Z,72.04
2018-04-13T03:11:30.188Z,72.10
2018-04-13T03:13:57.682Z,72.10
2018-04-13T03:16:25.167Z,72.16
2018-04-13T03:18:52.704Z,72.23
2018-04-13T03:21:20.165Z,72.20
2018-04-13T03:23:47.656Z,72.07
2018-04-13T03:26:15.164Z,72.03
2018-04-13T03:28:42.695Z,71.87
2018-04-13T03:31:10.300Z,71.76
2018-04-13T03:33:37.799Z,71.60
2018-04-13T03:36:05.283Z,71.24
2018-04-13T03:38:32.798Z,71.03
2018-04-13T03:41:00.302Z,70.71
2018-04-13T03:43:27.767Z,70.59
2018-04-13T03:45:55.236Z,70.45
2018-04-13T03:48:22.708Z,70.17
2018-04-13T03:50:50.191Z,69.99
2018-04-13T03:53:17.705Z,69.78
2018-04-13T03:55:45.212Z,69.67
2018-04-13T03:58:12.788Z,69.45
2018-04-13T04:00:40.238Z,69.43
2018-04-13T04:03:07.736Z,69.48
2018-04-13T04:05:35.227Z,69.72
2018-04-13T04:08:02.680Z,69.96
2018-04-13T04:10:30.143Z,69.98
2018-04-13T04:12:57.661Z,69.85
2018-04-13T04:15:25.256Z,69.73
2018-04-13T04:17:52.721Z,69.70
2018-04-13T04:20:32.044Z,69.60
2018-04-13T04:23:11.347Z,69.67
2018-04-13T04:26:02.442Z,69.74
2018-04-13T04:28:29.952Z,69.67
2018-04-13T04:30:57.474Z,69.60
2018-04-13T04:33:25.077Z,69.56
2018-04-13T04:35:52.583Z,69.44
2018-04-13T04:38:20.067Z,69.48
2018-04-13T04:40:47.580Z,69.39
2018-04-13T04:43:15.040Z,69.21
2018-04-13T04:45:42.504Z,69.08
2018-04-13T04:48:10.006Z,69.02
2018-04-13T04:50:37.475Z,68.93
2018-04-13T04:53:04.962Z,68.93
2018-04-13T04:55:32.422Z,68.92
2018-04-13T04:57:59.901Z,68.97
2018-04-13T05:00:27.387Z,68.92
2018-04-13T05:02:54.839Z,68.63
2018-04-13T05:05:22.289Z,68.55
2018-04-13T05:07:49.764Z,68.30
2018-04-13T05:10:17.210Z,68.27
2018-04-13T05:12:44.692Z,68.26
2018-04-13T05:15:12.331Z,68.14
2018-04-13T05:17:39.795Z,68.15
2018-04-13T05:20:07.336Z,68.14
2018-04-13T05:22:34.898Z,68.14
2018-04-13T05:25:02.353Z,68.32
2018-04-13T05:27:29.848Z,68.29
2018-04-13T05:29:57.347Z,68.65
2018-04-13T05:32:24.799Z,68.73
2018-04-13T05:34:52.363Z,68.41
2018-04-13T05:37:19.956Z,68.54
2018-04-13T05:39:47.465Z,68.69
2018-04-13T05:42:14.970Z,68.72
2018-04-13T05:44:42.430Z,68.82
2018-04-13T05:47:09.906Z,68.92
2018-04-13T05:49:37.373Z,68.96
2018-04-13T05:52:04.871Z,69.13
2018-04-13T05:54:32.364Z,69.10
2018-04-13T05:56:59.811Z,68.96
2018-04-13T05:59:27.313Z,69.19
2018-04-13T06:01:54.788Z,68.89
2018-04-13T06:04:22.268Z,68.93
2018-04-13T06:06:49.789Z,68.88
2018-04-13T06:09:17.308Z,68.75
2018-04-13T06:11:44.873Z,68.91
2018-04-13T06:14:12.365Z,68.71
2018-04-13T06:16:39.856Z,68.55
2018-04-13T06:19:07.323Z,68.39
2018-04-13T06:21:34.780Z,68.45
2018-04-13T06:24:02.294Z,68.91
2018-04-13T06:26:29.791Z,69.80
2018-04-13T06:28:57.275Z,70.16
2018-04-13T06:31:24.902Z,71.24
2018-04-13T06:33:52.488Z,72.56
2018-04-13T06:36:19.989Z,73.78
2018-04-13T06:38:47.461Z,74.07
2018-04-13T06:41:15.084Z,74.67
2018-04-13T06:43:42.599Z,75.89
2018-04-13T06:46:10.051Z,77.50
2018-04-13T06:48:37.579Z,77.94
2018-04-13T06:51:05.127Z,78.25
2018-04-13T06:53:32.597Z,78.10
2018-04-13T06:56:00.091Z,78.19
2018-04-13T06:58:27.551Z,77.96
2018-04-13T07:00:55.108Z,78.19
2018-04-13T07:03:22.568Z,78.21
2018-04-13T07:05:50.073Z,78.15
2018-04-13T07:08:17.690Z,78.54
2018-04-13T07:10:45.147Z,78.30
2018-04-13T07:13:12.599Z,78.57
2018-04-13T07:15:40.071Z,78.24
2018-04-13T07:18:07.623Z,78.33
2018-04-13T07:20:35.075Z,78.06
2018-04-13T07:23:02.706Z,78.19
2018-04-13T07:25:30.216Z,77.90
2018-04-13T07:27:57.782Z,78.88
2018-04-13T07:30:25.260Z,79.47
2018-04-13T07:32:52.809Z,79.72
2018-04-13T07:35:20.350Z,80.03
2018-04-13T07:37:47.826Z,80.10
2018-04-13T07:40:15.318Z,80.49
2018-04-13T07:42:42.791Z,81.39
2018-04-13T07:45:10.284Z,82.49
2018-04-13T07:47:37.793Z,83.00
2018-04-13T07:50:05.305Z,84.54
2018-04-13T07:52:32.818Z,85.46
2018-04-13T07:55:00.310Z,86.43
2018-04-13T07:57:27.804Z,86.49
2018-04-13T07:59:55.317Z,87.86
2018-04-13T08:02:22.900Z,88.37
2018-04-13T08:04:50.370Z,87.90
2018-04-13T08:07:17.877Z,88.22
2018-04-13T08:09:45.328Z,88.04
2018-04-13T08:12:12.812Z,88.08
2018-04-13T08:14:40.339Z,87.77
2018-04-13T08:17:07.810Z,87.79
2018-04-13T08:19:35.282Z,88.65
2018-04-13T08:22:02.762Z,89.27
2018-04-13T08:24:30.227Z,89.69
2018-04-13T08:26:57.727Z,89.66
2018-04-13T08:29:25.231Z,89.74
2018-04-13T08:31:52.714Z,89.81
2018-04-13T08:34:20.290Z,89.46
2018-04-13T08:36:47.840Z,88.48
2018-04-13T08:39:15.393Z,88.44
2018-04-13T08:41:42.914Z,87.99
2018-04-13T08:44:10.432Z,87.56
2018-04-13T08:46:37.913Z,87.80
2018-04-13T08:49:05.544Z,87.44
2018-04-13T08:51:32.940Z,87.29
2018-04-13T08:54:00.458Z,87.28
2018-04-13T08:56:28.014Z,86.55
2018-04-13T08:58:55.589Z,86.72
2018-04-13T09:01:23.052Z,86.74
2018-04-13T09:03:50.604Z,86.89
2018-04-13T09:06:18.079Z,86.71
2018-04-13T09:08:45.563Z,85.53
2018-04-13T09:11:13.021Z,83.80
2018-04-13T09:13:40.536Z,82.92
2018-04-13T09:16:08.007Z,80.99
2018-04-13T09:18:35.467Z,80.29
2018-04-13T09:21:02.939Z,79.14
2018-04-13T09:23:30.448Z,78.53
2018-04-13T09:25:57.971Z,77.37
2018-04-13T09:28:25.440Z,78.24
2018-04-13T09:30:52.928Z,77.07
2018-04-13T09:33:20.458Z,75.62
2018-04-13T09:35:47.999Z,75.68
2018-04-13T09:38:15.485Z,75.08
2018-04-13T09:40:42.978Z,75.28
2018-04-13T09:43:10.487Z,74.07
2018-04-13T09:45:38.076Z,74.29
2018-04-13T09:48:05.538Z,75.14
2018-04-13T09:50:33.034Z,74.76
2018-04-13T09:53:00.509Z,74.80
2018-04-13T09:55:28.009Z,75.42
2018-04-13T09:57:55.575Z,75.86
2018-04-13T10:00:28.738Z,75.04
2018-04-13T10:03:01.817Z,76.02
2018-04-13T10:05:29.312Z,75.99
2018-04-13T10:07:56.796Z,76.15
2018-04-13T10:10:24.318Z,76.03
2018-04-13T10:12:52.661Z,76.37
2018-04-13T10:15:20.344Z,77.45
2018-04-13T10:17:47.864Z,78.35
2018-04-13T10:20:15.343Z,79.02
2018-04-13T10:22:42.887Z,79.06
2018-04-13T10:25:10.420Z,79.61
2018-04-13T10:27:37.924Z,79.88
2018-04-13T10:30:05.395Z,79.23
2018-04-13T10:32:32.851Z,78.69
2018-04-13T10:35:00.374Z,78.62
2018-04-13T10:37:27.877Z,79.11
2018-04-13T10:39:55.412Z,78.88
2018-04-13T10:42:22.916Z,79.32
2018-04-13T10:44:50.400Z,79.63
2018-04-13T10:47:17.856Z,79.62
2018-04-13T10:49:45.345Z,79.55
2018-04-13T10:52:13.163Z,79.91
2018-04-13T10:54:40.618Z,79.48
2018-04-13T10:57:08.120Z,80.09
2018-04-13T10:59:35.823Z,80.83
2018-04-13T11:02:03.283Z,80.12
2018-04-13T11:04:30.903Z,81.74
2018-04-13T11:06:58.537Z,82.29
2018-04-13T11:09:26.060Z,81.31
2018-04-13T11:11:53.547Z,81.52
2018-04-13T11:14:21.077Z,80.90
2018-04-13T11:16:48.618Z,80.85
2018-04-13T11:19:16.105Z,79.94
2018-04-13T11:21:43.602Z,78.99
2018-04-13T11:24:11.085Z,78.60
2018-04-13T11:26:38.733Z,78.70
2018-04-13T11:29:06.227Z,77.02
2018-04-13T11:31:33.698Z,75.78
2018-04-13T11:34:01.216Z,73.90
2018-04-13T11:36:28.775Z,73.28
2018-04-13T11:38:56.236Z,72.31
2018-04-13T11:41:23.706Z,72.95
2018-04-13T11:43:51.160Z,72.99
2018-04-13T11:46:18.665Z,73.00
2018-04-13T11:48:46.120Z,72.74
2018-04-13T11:51:13.575Z,71.24
2018-04-13T11:53:41.111Z,69.53
2018-04-13T11:56:08.583Z,69.75
2018-04-13T11:58:36.102Z,69.00
2018-04-13T12:01:03.561Z,68.99
2018-04-13T12:03:31.035Z,68.34
2018-04-13T12:05:58.507Z,67.47
2018-04-13T12:08:25.972Z,67.43
2018-04-13T12:10:53.432Z,66.24
2018-04-13T12:13:20.919Z,65.75
2018-04-13T12:15:48.503Z,67.13
2018-04-13T12:18:15.959Z,67.06
2018-04-13T12:20:43.441Z,68.13
2018-04-13T12:23:10.897Z,68.74
2018-04-13T12:25:38.384Z,69.05
2018-04-13T12:28:05.874Z,68.91
2018-04-13T12:30:33.335Z,68.05
2018-04-13T12:33:00.934Z,66.25
2018-04-13T12:35:28.491Z,64.71
2018-04-13T12:37:56.013Z,64.45
2018-04-13T12:40:23.583Z,66.21
2018-04-13T12:42:51.105Z,66.62
2018-04-13T12:45:18.615Z,66.58
2018-04-13T12:47:46.073Z,65.83
2018-04-13T12:50:13.572Z,67.67
2018-04-13T12:52:41.102Z,65.82
2018-04-13T12:55:08.975Z,65.24
2018-04-13T12:57:36.170Z,64.82
2018-04-13T13:00:03.628Z,64.73
2018-04-13T13:02:31.213Z,63.83
2018-04-13T13:04:58.713Z,63.34
2018-04-13T13:07:26.222Z,63.11
2018-04-13T13:09:53.786Z,62.84
2018-04-13T13:12:21.274Z,62.34
2018-04-13T13:14:48.731Z,62.56
2018-04-13T13:17:16.234Z,62.49
2018-04-13T13:19:43.734Z,62.16
2018-04-13T13:22:11.294Z,61.95
2018-04-13T13:24:38.785Z,62.44
2018-04-13T13:27:06.277Z,62.42
2018-04-13T13:29:33.860Z,62.41
2018-04-13T13:32:01.444Z,61.94
2018-04-13T13:34:28.964Z,61.36
2018-04-13T13:36:56.454Z,61.21
2018-04-13T13:39:23.972Z,60.50
2018-04-13T13:41:51.449Z,59.87
2018-04-13T13:44:18.952Z,59.65
2018-04-13T13:46:46.428Z,60.24
2018-04-13T13:49:13.882Z,60.38
2018-04-13T13:51:41.527Z,59.94
2018-04-13T13:54:09.070Z,59.88
2018-04-13T13:56:36.668Z,59.13
2018-04-13T13:59:04.137Z,58.99
2018-04-13T14:01:31.636Z,57.71
2018-04-13T14:03:59.124Z,57.83
2018-04-13T14:06:26.650Z,57.29
2018-04-13T14:08:54.100Z,57.10
2018-04-13T14:11:21.585Z,56.34
2018-04-13T14:13:49.091Z,55.25
2018-04-13T14:16:16.569Z,54.59
2018-04-13T14:18:44.027Z,54.76
2018-04-13T14:21:11.491Z,54.24
2018-04-13T14:23:39.150Z,53.88
2018-04-13T14:26:06.659Z,54.08
2018-04-13T14:28:34.136Z,54.06
2018-04-13T14:31:01.623Z,54.14
2018-04-13T14:33:29.137Z,53.41
2018-04-13T14:35:56.611Z,53.71
2018-04-13T14:38:24.096Z,52.67
2018-04-13T14:43:42.080Z,53.69
2018-04-13T14:46:09.528Z,53.82
2018-04-13T14:48:37.046Z,53.60
2018-04-13T14:51:04.586Z,53.62
2018-04-13T14:53:32.034Z,53.58
2018-04-13T14:55:59.507Z,53.79
2018-04-13T14:58:26.983Z,54.04
2018-04-13T15:00:54.595Z,53.82
2018-04-13T15:03:22.015Z,53.91
2018-04-13T15:05:49.604Z,53.38
2018-04-13T15:08:17.109Z,52.72
2018-04-13T15:10:44.609Z,52.71
2018-04-13T15:13:12.141Z,52.62
2018-04-13T15:15:39.642Z,52.98
2018-04-13T15:18:07.188Z,53.12
2018-04-13T15:20:34.705Z,53.24
2018-04-13T15:23:02.221Z,53.14
2018-04-13T15:25:29.782Z,53.77
2018-04-13T15:27:57.343Z,54.09
2018-04-13T15:30:24.888Z,54.94
2018-04-13T15:32:52.453Z,56.02
2018-04-13T15:35:19.976Z,56.59
2018-04-13T15:37:47.432Z,56.55
2018-04-13T15:40:14.919Z,56.74
2018-04-13T15:42:42.377Z,56.38
2018-04-13T15:45:09.849Z,56.58
2018-04-13T15:47:37.340Z,56.96
2018-04-13T15:50:04.855Z,57.01
2018-04-13T15:52:32.353Z,56.89
2018-04-13T15:54:59.832Z,56.47
2018-04-13T15:57:27.289Z,57.24
2018-04-13T15:59:54.758Z,58.46
2018-04-13T16:02:22.334Z,59.62
2018-04-13T16:04:49.893Z,60.46
2018-04-13T16:07:17.378Z,60.88
2018-04-13T16:09:44.934Z,61.74
2018-04-13T16:12:12.525Z,63.02
2018-04-13T16:14:39.973Z,64.40
2018-04-13T16:17:07.459Z,65.35
2018-04-13T16:19:34.933Z,65.77
2018-04-13T16:22:02.424Z,66.04
2018-04-13T16:24:29.989Z,66.67
2018-04-13T16:26:57.533Z,67.19
2018-04-13T16:29:24.986Z,67.08
2018-04-13T16:31:52.554Z,66.96
2018-04-13T16:34:20.127Z,67.28
2018-04-13T16:36:47.616Z,67.31
2018-04-13T16:39:15.117Z,67.54
2018-04-13T16:41:42.648Z,67.52
2018-04-13T16:44:10.161Z,67.17
2018-04-13T16:46:37.725Z,66.94
2018-04-13T16:49:05.388Z,67.30
2018-04-13T16:51:32.896Z,67.47
2018-04-13T16:54:00.416Z,68.23
2018-04-13T16:56:27.883Z,67.81
2018-04-13T16:58:55.366Z,68.33
2018-04-13T17:01:22.870Z,68.01
2018-04-13T17:03:50.352Z,66.84
2018-04-13T17:06:17.852Z,66.93
2018-04-13T17:08:45.448Z,66.91
2018-04-13T17:11:12.948Z,67.19
2018-04-13T17:13:40.475Z,67.82
2018-04-13T17:16:08.110Z,67.92
2018-04-13T17:18:35.579Z,68.54
2018-04-13T17:21:03.048Z,68.53
2018-04-13T17:23:30.569Z,69.17
2018-04-13T17:25:58.022Z,68.96
2018-04-13T17:28:25.613Z,69.20
2018-04-13T17:30:53.063Z,68.85
2018-04-13T17:33:20.552Z,69.27
2018-04-13T17:35:48.049Z,69.87
2018-04-13T17:38:15.572Z,70.50
2018-04-13T17:40:43.074Z,71.17
2018-04-13T17:43:10.678Z,72.11
2018-04-13T17:45:38.132Z,72.82
2018-04-13T17:48:05.638Z,73.35
2018-04-13T17:50:33.260Z,74.05
2018-04-13T17:53:00.850Z,75.46
2018-04-13T17:55:28.320Z,76.69
2018-04-13T17:57:55.828Z,77.88
2018-04-13T18:00:23.312Z,80.93
2018-04-13T18:02:50.814Z,83.02
2018-04-13T18:05:18.413Z,85.39
2018-04-13T18:07:46.076Z,86.15
2018-04-13T18:10:13.629Z,87.12
2018-04-13T18:12:41.146Z,88.08
2018-04-13T18:15:08.612Z,89.46
2018-04-13T18:17:36.068Z,90.52
2018-04-13T18:20:03.551Z,90.27
2018-04-13T18:22:31.072Z,90.44
2018-04-13T18:24:58.595Z,90.00
2018-04-13T18:27:26.064Z,89.95
2018-04-13T18:29:53.565Z,90.31
2018-04-13T18:32:21.023Z,89.35
2018-04-13T18:34:48.477Z,89.75
2018-04-13T18:37:16.121Z,89.95
2018-04-13T18:39:43.695Z,90.14
2018-04-13T18:42:11.206Z,90.21
2018-04-13T18:44:38.734Z,89.39
2018-04-13T18:47:06.234Z,89.53
2018-04-13T18:49:33.863Z,89.67
2018-04-13T18:52:01.409Z,89.77
2018-04-13T18:54:28.893Z,89.63
2018-04-13T18:56:56.438Z,90.44
2018-04-13T18:59:23.922Z,90.68
2018-04-13T19:01:51.415Z,90.68
2018-04-13T19:04:18.946Z,90.34
2018-04-13T19:06:46.442Z,90.28
2018-04-13T19:09:13.979Z,90.04
2018-04-13T19:11:41.560Z,89.89
2018-04-13T19:14:09.070Z,89.80
2018-04-13T19:16:36.547Z,90.05
2018-04-13T19:19:04.089Z,90.08
2018-04-13T19:21:31.659Z,90.60
2018-04-13T19:23:59.126Z,90.98
2018-04-13T19:26:26.591Z,91.35
2018-04-13T19:28:54.144Z,91.35
2018-04-13T19:31:21.655Z,91.56
2018-04-13T19:33:49.213Z,91.57
2018-04-13T19:36:16.760Z,91.71
2018-04-13T19:38:44.287Z,91.70
2018-04-13T19:41:11.806Z,91.85
2018-04-13T19:43:39.368Z,92.08
2018-04-13T19:46:06.900Z,92.76
2018-04-13T19:48:34.481Z,92.36
2018-04-13T19:51:01.976Z,91.85
2018-04-13T19:53:29.570Z,92.18
2018-04-13T19:55:57.094Z,92.31
2018-04-13T19:58:24.608Z,92.47
2018-04-13T20:00:52.212Z,92.44
2018-04-13T20:03:19.696Z,92.69
2018-04-13T20:05:47.230Z,92.81
2018-04-13T20:08:14.729Z,92.85
2018-04-13T20:10:42.220Z,93.07
2018-04-13T20:13:09.821Z,93.11
2018-04-13T20:15:37.324Z,92.91
2018-04-13T20:18:04.837Z,93.51
2018-04-13T20:20:32.527Z,93.50
2018-04-13T20:23:00.062Z,93.59
2018-04-13T20:25:27.558Z,93.72
2018-04-13T20:27:55.098Z,94.02
2018-04-13T20:30:22.601Z,94.50
2018-04-13T20:32:50.136Z,94.76
2018-04-13T20:35:17.734Z,94.99
2018-04-13T20:37:45.222Z,95.02
2018-04-13T20:40:12.726Z,94.81
2018-04-13T20:42:40.192Z,94.30
2018-04-13T20:45:07.722Z,93.95
2018-04-13T20:47:35.347Z,93.94
2018-04-13T20:50:02.856Z,94.01
2018-04-13T20:52:30.402Z,94.00
2018-04-13T20:54:57.903Z,94.07
2018-04-13T20:57:25.447Z,94.50
2018-04-13T20:59:52.988Z,94.44
2018-04-13T21:02:20.491Z,94.46
2018-04-13T21:04:48.013Z,94.46
2018-04-13T21:07:15.493Z,94.64
2018-04-13T21:09:43.089Z,94.80
2018-04-13T21:12:10.583Z,94.73
2018-04-13T21:14:38.120Z,94.62
2018-04-13T21:17:05.652Z,94.56
2018-04-13T21:19:33.212Z,94.60
2018-04-13T21:22:00.830Z,94.31
2018-04-13T21:24:28.324Z,94.11
2018-04-13T21:26:55.925Z,93.96
2018-04-13T21:29:23.390Z,93.78
2018-04-13T21:31:50.909Z,93.45
2018-04-13T21:34:18.421Z,92.82
2018-04-13T21:36:45.923Z,92.46
2018-04-13T21:39:13.460Z,91.99
2018-04-13T21:41:41.050Z,91.82
2018-04-13T21:44:08.511Z,91.04
2018-04-13T21:46:35.999Z,90.47
2018-04-13T21:49:03.499Z,88.97
2018-04-13T21:51:31.078Z,87.52
2018-04-13T21:53:58.570Z,86.25
2018-04-13T21:56:26.039Z,85.76
2018-04-13T21:58:53.520Z,85.08
2018-04-13T22:01:21.006Z,84.90
2018-04-13T22:03:48.519Z,84.43
2018-04-13T22:06:16.049Z,82.77
2018-04-13T22:08:43.549Z,82.10
2018-04-13T22:11:11.094Z,82.08
2018-04-13T22:13:38.593Z,82.66
2018-04-13T22:16:06.052Z,82.33
2018-04-13T22:18:33.536Z,81.47
2018-04-13T22:21:01.034Z,81.11
2018-04-13T22:23:28.543Z,80.70
2018-04-13T22:25:56.008Z,81.20
2018-04-13T22:28:23.497Z,81.34
2018-04-13T22:30:51.025Z,81.52
2018-04-13T22:33:18.512Z,82.11
2018-04-13T22:35:46.007Z,82.23
2018-04-13T22:38:13.499Z,83.35
2018-04-13T22:40:40.973Z,83.61
2018-04-13T22:43:08.469Z,84.96
2018-04-13T22:45:35.943Z,86.00
2018-04-13T22:48:03.473Z,87.65
2018-04-13T22:50:30.935Z,88.56
2018-04-13T22:52:58.429Z,89.18
2018-04-13T22:55:25.933Z,89.68
2018-04-13T22:57:53.389Z,90.58
2018-04-13T23:00:20.895Z,91.55
2018-04-13T23:02:48.415Z,91.79
2018-04-13T23:05:15.910Z,91.96
2018-04-13T23:07:43.417Z,91.99
2018-04-13T23:10:10.922Z,92.96
2018-04-13T23:12:38.400Z,92.57
2018-04-13T23:15:05.852Z,92.52
2018-04-13T23:17:33.324Z,92.84
2018-04-13T23:20:00.876Z,93.40
2018-04-13T23:22:38.407Z,93.63
2018-04-13T23:25:06.057Z,93.83
2018-04-13T23:27:33.545Z,94.16
2018-04-13T23:30:01.053Z,94.82
2018-04-13T23:32:28.547Z,94.31
2018-04-13T23:34:56.014Z,94.32
2018-04-13T23:37:23.591Z,93.80
2018-04-13T23:39:51.138Z,93.92
2018-04-13T23:42:18.632Z,94.05
2018-04-13T23:44:46.135Z,94.09
2018-04-13T23:47:13.631Z,94.22
2018-04-13T23:49:41.202Z,94.43
2018-04-13T23:52:08.973Z,94.55
2018-04-13T23:54:36.459Z,94.52
2018-04-13T23:57:03.978Z,94.46
2018-04-13T23:59:31.509Z,94.28
